KTCS/TCS METAR and TAF weather

Enter ICAO airport designator
Station Type Date Time Source
KTCS METAR 2021/09/23 16:53 UTC NOAA

KTCS 231653Z AUTO 15004KT 10SM CLR 24/06 A3018 RMK AO2 SLP141 T02390056


Station Type Date Time Source
KTCS Decoded METAR 2021/09/23 16:53 UTC NOAA

TRUTH OR CONSEQUENCES MUNI, NM, United States (KTCS) 33-14N 107-16W 1469M
Sep 23, 2021 - 12:53 PM EDT / 2021.09.23 1653 UTC
Wind: from the SSE (150 degrees) at 5 MPH (4 KT):0
Visibility: 10 mile(s):0
Sky conditions: clear
Temperature: 75.0 F (23.9 C)
Dew Point: 42.1 F (5.6 C)
Relative Humidity: 30%
Pressure (altimeter): 30.18 in. Hg (1022 hPa)
ob: KTCS 231653Z AUTO 15004KT 10SM CLR 24/06 A3018 RMK AO2 SLP141 T02390056
cycle: 17

Station Type Date Time Source
KTCS TAF 2021/09/23 18:22 UTC NOAA

TAF KTCS 231720Z 2318/2418 18008KT P6SM BKN200
FM240200 28006KT P6SM SCT100 BKN150
FM240600 28006KT P6SM VCSH SCT070 BKN120
FM241400 VRB04KT P6SM VCSH BKN070

Example: see airport list